Calipatria, California
Current Conditions -  °F | °C
As of 9:53 PM on Tuesday 25 Nov 2014 (Local Time) from KIPL Reporting Station
Clear Clear  
Wind Chill: 50°   Ceiling: Unl
Heat Index: 50°   Visibility: 10mi
Dew Point: 25°   Wind: 6mph
Humidity: 38%   Direction: 250°WSW
Pressure: 30.29"   Gusts: NA
Location:  33.13°N, 115.51°W
Report Text: KIPL 260553Z AUTO 25005KT 10SM CLR 10/M04 A3029 RMK AO2 SLP258 T01001039 10217 20100 58004
Loading
Personal Weather Stations






























Interactive Weather Map New forecast layout! Learn more

10-Day Weather Forecast

Advertisements
Track Severe Weather on mobile